Terminal Aerodrome Forecast
Issued by NWS Albany, NY

Home | Current Version | Previous Version | Text Only | Print | Product List | Glossary On
Versions: 1 2 3 4 5 6 7 8 9 10 11 12 13 14 15 16 17 18 19 20 21
083
FTUS41 KALY 122346
TAFGFL
TAF
KGFL 122346Z 1300/1324 18007KT P6SM OVC060
     FM130400 19004KT P6SM VCSH SCT025 OVC040
      TEMPO 1304/1306 3SM -SHSN BR BKN025
     FM131100 30010G16KT P6SM BKN090
     FM131400 31013G21KT P6SM BKN100
     FM131800 32012G22KT P6SM FEW050 SCT200=

USA.gov is the U.S. government's official web portal to all federal, state and local government web resources and services.